sensor_id;sensor_type;location;lat;lon;timestamp;P1;durP1;ratioP1;P2;durP2;ratioP2
62338;SDS011;48368;53.406;6.214;2022-09-19T00:01:30;17.88;;;3.17;;
62338;SDS011;48368;53.406;6.214;2022-09-19T00:04:02;21.15;;;2.60;;
62338;SDS011;48368;53.406;6.214;2022-09-19T00:06:30;14.65;;;2.08;;
62338;SDS011;48368;53.406;6.214;2022-09-19T00:08:57;32.05;;;3.47;;
62338;SDS011;48368;53.406;6.214;2022-09-19T00:11:24;21.55;;;3.88;;
62338;SDS011;48368;53.406;6.214;2022-09-19T00:13:51;10.77;;;1.70;;
62338;SDS011;48368;53.406;6.214;2022-09-19T00:18:47;19.48;;;2.45;;
62338;SDS011;48368;53.406;6.214;2022-09-19T00:21:33;11.82;;;2.10;;
62338;SDS011;48368;53.406;6.214;2022-09-19T00:24:01;24.55;;;2.70;;
62338;SDS011;48368;53.406;6.214;2022-09-19T00:26:46;17.52;;;2.42;;
62338;SDS011;48368;53.406;6.214;2022-09-19T00:29:12;20.90;;;3.67;;
62338;SDS011;48368;53.406;6.214;2022-09-19T00:31:40;22.02;;;2.63;;
62338;SDS011;48368;53.406;6.214;2022-09-19T00:34:08;20.50;;;3.05;;
62338;SDS011;48368;53.406;6.214;2022-09-19T00:36:35;17.67;;;2.20;;
62338;SDS011;48368;53.406;6.214;2022-09-19T00:39:02;17.65;;;2.30;;
62338;SDS011;48368;53.406;6.214;2022-09-19T00:41:30;17.60;;;3.50;;
62338;SDS011;48368;53.406;6.214;2022-09-19T00:43:57;16.80;;;2.38;;
62338;SDS011;48368;53.406;6.214;2022-09-19T00:46:26;22.15;;;3.00;;
62338;SDS011;48368;53.406;6.214;2022-09-19T00:48:55;20.02;;;3.58;;
62338;SDS011;48368;53.406;6.214;2022-09-19T00:51:32;14.23;;;2.13;;
62338;SDS011;48368;53.406;6.214;2022-09-19T00:54:32;23.38;;;3.30;;
62338;SDS011;48368;53.406;6.214;2022-09-19T00:57:02;13.95;;;2.00;;
62338;SDS011;48368;53.406;6.214;2022-09-19T00:59:30;19.95;;;3.20;;
62338;SDS011;48368;53.406;6.214;2022-09-19T01:01:59;12.13;;;2.15;;
62338;SDS011;48368;53.406;6.214;2022-09-19T01:04:29;16.13;;;2.45;;
62338;SDS011;48368;53.406;6.214;2022-09-19T01:16:09;26.63;;;4.43;;
62338;SDS011;48368;53.406;6.214;2022-09-19T01:18:52;16.48;;;2.28;;
62338;SDS011;48368;53.406;6.214;2022-09-19T01:29:42;13.35;;;1.27;;
62338;SDS011;48368;53.406;6.214;2022-09-19T01:32:15;15.75;;;3.40;;
62338;SDS011;48368;53.406;6.214;2022-09-19T01:34:47;18.92;;;2.45;;
62338;SDS011;48368;53.406;6.214;2022-09-19T01:37:17;11.25;;;2.00;;
62338;SDS011;48368;53.406;6.214;2022-09-19T01:39:47;10.50;;;1.75;;
62338;SDS011;48368;53.406;6.214;2022-09-19T01:42:17;10.25;;;1.05;;
62338;SDS011;48368;53.406;6.214;2022-09-19T01:44:44;4.93;;;0.55;;
62338;SDS011;48368;53.406;6.214;2022-09-19T01:47:57;10.85;;;0.95;;
62338;SDS011;48368;53.406;6.214;2022-09-19T01:50:06;12.32;;;1.58;;
62338;SDS011;48368;53.406;6.214;2022-09-19T01:55:46;10.25;;;1.83;;
62338;SDS011;48368;53.406;6.214;2022-09-19T01:58:31;19.02;;;2.60;;
62338;SDS011;48368;53.406;6.214;2022-09-19T02:01:08;20.05;;;3.13;;
62338;SDS011;48368;53.406;6.214;2022-09-19T02:03:46;9.55;;;1.75;;
62338;SDS011;48368;53.406;6.214;2022-09-19T02:06:14;20.77;;;2.00;;
62338;SDS011;48368;53.406;6.214;2022-09-19T02:08:57;16.27;;;1.92;;
62338;SDS011;48368;53.406;6.214;2022-09-19T02:11:29;19.63;;;3.00;;
62338;SDS011;48368;53.406;6.214;2022-09-19T02:14:04;19.98;;;2.72;;
62338;SDS011;48368;53.406;6.214;2022-09-19T02:16:51;17.88;;;2.58;;
62338;SDS011;48368;53.406;6.214;2022-09-19T02:19:45;15.93;;;2.53;;
62338;SDS011;48368;53.406;6.214;2022-09-19T02:22:38;18.80;;;3.13;;
62338;SDS011;48368;53.406;6.214;2022-09-19T02:25:13;14.95;;;3.30;;
62338;SDS011;48368;53.406;6.214;2022-09-19T02:27:54;15.02;;;2.20;;
62338;SDS011;48368;53.406;6.214;2022-09-19T02:30:24;14.95;;;2.17;;
62338;SDS011;48368;53.406;6.214;2022-09-19T02:32:50;14.23;;;1.75;;
62338;SDS011;48368;53.406;6.214;2022-09-19T02:35:19;13.95;;;1.55;;
62338;SDS011;48368;53.406;6.214;2022-09-19T02:37:50;11.02;;;1.25;;
62338;SDS011;48368;53.406;6.214;2022-09-19T02:40:26;13.15;;;2.33;;
62338;SDS011;48368;53.406;6.214;2022-09-19T02:43:03;18.67;;;2.17;;
62338;SDS011;48368;53.406;6.214;2022-09-19T02:45:36;16.27;;;2.78;;
62338;SDS011;48368;53.406;6.214;2022-09-19T02:50:41;15.27;;;3.70;;
62338;SDS011;48368;53.406;6.214;2022-09-19T02:53:17;12.25;;;1.80;;
62338;SDS011;48368;53.406;6.214;2022-09-19T02:55:48;15.88;;;3.15;;
62338;SDS011;48368;53.406;6.214;2022-09-19T02:58:20;20.42;;;3.58;;
62338;SDS011;48368;53.406;6.214;2022-09-19T03:00:48;16.23;;;3.20;;
62338;SDS011;48368;53.406;6.214;2022-09-19T03:03:37;17.55;;;2.65;;
62338;SDS011;48368;53.406;6.214;2022-09-19T03:06:28;17.30;;;2.60;;
62338;SDS011;48368;53.406;6.214;2022-09-19T03:09:00;17.48;;;2.33;;
62338;SDS011;48368;53.406;6.214;2022-09-19T03:11:28;17.48;;;2.40;;
62338;SDS011;48368;53.406;6.214;2022-09-19T03:13:57;12.10;;;1.95;;
62338;SDS011;48368;53.406;6.214;2022-09-19T03:16:28;18.67;;;3.50;;
62338;SDS011;48368;53.406;6.214;2022-09-19T03:18:59;13.98;;;1.98;;
62338;SDS011;48368;53.406;6.214;2022-09-19T03:21:26;18.20;;;3.28;;
62338;SDS011;48368;53.406;6.214;2022-09-19T03:23:53;18.38;;;2.53;;
62338;SDS011;48368;53.406;6.214;2022-09-19T03:26:25;12.63;;;2.42;;
62338;SDS011;48368;53.406;6.214;2022-09-19T03:28:56;24.58;;;3.30;;
62338;SDS011;48368;53.406;6.214;2022-09-19T03:31:22;16.10;;;4.13;;
62338;SDS011;48368;53.406;6.214;2022-09-19T03:33:49;22.00;;;2.78;;
62338;SDS011;48368;53.406;6.214;2022-09-19T03:36:16;15.73;;;2.25;;
62338;SDS011;48368;53.406;6.214;2022-09-19T03:38:43;16.55;;;2.42;;
62338;SDS011;48368;53.406;6.214;2022-09-19T03:41:13;12.27;;;2.13;;
62338;SDS011;48368;53.406;6.214;2022-09-19T03:43:40;16.85;;;2.50;;
62338;SDS011;48368;53.406;6.214;2022-09-19T03:46:12;13.95;;;2.15;;
62338;SDS011;48368;53.406;6.214;2022-09-19T03:48:40;13.57;;;3.03;;
62338;SDS011;48368;53.406;6.214;2022-09-19T03:51:09;15.20;;;2.45;;
62338;SDS011;48368;53.406;6.214;2022-09-19T03:53:35;13.23;;;2.42;;
62338;SDS011;48368;53.406;6.214;2022-09-19T03:56:02;16.40;;;2.38;;
62338;SDS011;48368;53.406;6.214;2022-09-19T03:58:28;17.83;;;2.17;;
62338;SDS011;48368;53.406;6.214;2022-09-19T04:00:56;19.42;;;2.80;;
62338;SDS011;48368;53.406;6.214;2022-09-19T04:03:22;20.27;;;2.40;;
62338;SDS011;48368;53.406;6.214;2022-09-19T04:05:49;19.20;;;1.95;;
62338;SDS011;48368;53.406;6.214;2022-09-19T04:08:16;20.67;;;2.55;;
62338;SDS011;48368;53.406;6.214;2022-09-19T04:10:41;20.23;;;2.33;;
62338;SDS011;48368;53.406;6.214;2022-09-19T04:13:07;16.92;;;2.30;;
62338;SDS011;48368;53.406;6.214;2022-09-19T04:15:34;17.73;;;2.38;;
62338;SDS011;48368;53.406;6.214;2022-09-19T04:18:00;18.55;;;2.17;;
62338;SDS011;48368;53.406;6.214;2022-09-19T04:20:28;12.45;;;2.40;;
62338;SDS011;48368;53.406;6.214;2022-09-19T04:22:58;10.65;;;1.58;;
62338;SDS011;48368;53.406;6.214;2022-09-19T04:25:28;17.42;;;2.28;;
62338;SDS011;48368;53.406;6.214;2022-09-19T04:28:04;23.20;;;2.80;;
62338;SDS011;48368;53.406;6.214;2022-09-19T04:30:33;16.92;;;2.45;;
62338;SDS011;48368;53.406;6.214;2022-09-19T04:33:03;11.55;;;1.65;;
62338;SDS011;48368;53.406;6.214;2022-09-19T04:35:30;15.80;;;1.95;;
62338;SDS011;48368;53.406;6.214;2022-09-19T04:38:06;12.00;;;1.52;;
62338;SDS011;48368;53.406;6.214;2022-09-19T04:40:37;21.50;;;2.55;;
62338;SDS011;48368;53.406;6.214;2022-09-19T04:43:04;15.18;;;1.80;;
62338;SDS011;48368;53.406;6.214;2022-09-19T04:45:31;10.45;;;1.65;;
62338;SDS011;48368;53.406;6.214;2022-09-19T04:47:56;14.30;;;2.22;;
62338;SDS011;48368;53.406;6.214;2022-09-19T04:50:24;10.15;;;1.60;;
62338;SDS011;48368;53.406;6.214;2022-09-19T04:52:52;11.77;;;1.63;;
62338;SDS011;48368;53.406;6.214;2022-09-19T04:55:18;18.85;;;2.63;;
62338;SDS011;48368;53.406;6.214;2022-09-19T04:57:43;18.35;;;2.10;;
62338;SDS011;48368;53.406;6.214;2022-09-19T05:00:10;13.75;;;2.38;;
62338;SDS011;48368;53.406;6.214;2022-09-19T05:02:36;14.00;;;1.90;;
62338;SDS011;48368;53.406;6.214;2022-09-19T05:05:02;10.23;;;1.40;;
62338;SDS011;48368;53.406;6.214;2022-09-19T05:07:29;15.75;;;1.75;;
62338;SDS011;48368;53.406;6.214;2022-09-19T05:09:58;18.25;;;3.00;;
62338;SDS011;48368;53.406;6.214;2022-09-19T05:12:27;11.05;;;1.70;;
62338;SDS011;48368;53.406;6.214;2022-09-19T05:14:54;15.25;;;1.85;;
62338;SDS011;48368;53.406;6.214;2022-09-19T05:17:20;11.15;;;1.60;;
62338;SDS011;48368;53.406;6.214;2022-09-19T05:19:46;15.75;;;1.95;;
62338;SDS011;48368;53.406;6.214;2022-09-19T05:22:12;11.38;;;1.98;;
62338;SDS011;48368;53.406;6.214;2022-09-19T05:24:37;12.63;;;2.55;;
62338;SDS011;48368;53.406;6.214;2022-09-19T05:27:03;10.82;;;1.27;;
62338;SDS011;48368;53.406;6.214;2022-09-19T05:29:31;10.50;;;1.95;;
62338;SDS011;48368;53.406;6.214;2022-09-19T05:32:01;13.38;;;2.00;;
62338;SDS011;48368;53.406;6.214;2022-09-19T05:34:28;16.42;;;2.40;;
62338;SDS011;48368;53.406;6.214;2022-09-19T05:36:53;14.10;;;2.10;;
62338;SDS011;48368;53.406;6.214;2022-09-19T05:39:19;16.65;;;2.60;;
62338;SDS011;48368;53.406;6.214;2022-09-19T05:41:45;17.77;;;2.85;;
62338;SDS011;48368;53.406;6.214;2022-09-19T05:44:10;15.93;;;2.60;;
62338;SDS011;48368;53.406;6.214;2022-09-19T05:46:38;15.82;;;3.28;;
62338;SDS011;48368;53.406;6.214;2022-09-19T05:49:04;18.17;;;3.58;;
62338;SDS011;48368;53.406;6.214;2022-09-19T05:51:30;12.65;;;2.30;;
62338;SDS011;48368;53.406;6.214;2022-09-19T05:53:56;19.60;;;2.28;;
62338;SDS011;48368;53.406;6.214;2022-09-19T05:56:22;14.52;;;2.95;;
62338;SDS011;48368;53.406;6.214;2022-09-19T05:58:51;10.48;;;2.05;;
62338;SDS011;48368;53.406;6.214;2022-09-19T06:01:17;15.38;;;2.33;;
62338;SDS011;48368;53.406;6.214;2022-09-19T06:03:43;9.90;;;1.70;;
62338;SDS011;48368;53.406;6.214;2022-09-19T06:06:10;17.40;;;3.35;;
62338;SDS011;48368;53.406;6.214;2022-09-19T06:08:39;21.23;;;3.40;;
62338;SDS011;48368;53.406;6.214;2022-09-19T06:11:06;36.30;;;4.07;;
62338;SDS011;48368;53.406;6.214;2022-09-19T06:13:33;24.73;;;3.05;;
62338;SDS011;48368;53.406;6.214;2022-09-19T06:16:18;17.85;;;2.30;;
62338;SDS011;48368;53.406;6.214;2022-09-19T06:18:44;28.88;;;3.95;;
62338;SDS011;48368;53.406;6.214;2022-09-19T06:21:10;22.65;;;3.22;;
62338;SDS011;48368;53.406;6.214;2022-09-19T06:23:35;16.67;;;2.80;;
62338;SDS011;48368;53.406;6.214;2022-09-19T06:26:01;17.80;;;2.97;;
62338;SDS011;48368;53.406;6.214;2022-09-19T06:28:27;25.00;;;2.88;;
62338;SDS011;48368;53.406;6.214;2022-09-19T06:30:52;15.20;;;3.10;;
62338;SDS011;48368;53.406;6.214;2022-09-19T06:33:18;11.82;;;2.25;;
62338;SDS011;48368;53.406;6.214;2022-09-19T06:35:44;10.07;;;1.65;;
62338;SDS011;48368;53.406;6.214;2022-09-19T06:38:10;9.90;;;1.52;;
62338;SDS011;48368;53.406;6.214;2022-09-19T06:40:36;11.68;;;1.52;;
62338;SDS011;48368;53.406;6.214;2022-09-19T06:43:04;11.77;;;1.38;;
62338;SDS011;48368;53.406;6.214;2022-09-19T06:45:35;13.10;;;2.58;;
62338;SDS011;48368;53.406;6.214;2022-09-19T06:48:03;10.95;;;1.98;;
62338;SDS011;48368;53.406;6.214;2022-09-19T06:50:30;17.67;;;2.00;;
62338;SDS011;48368;53.406;6.214;2022-09-19T06:52:57;15.35;;;2.53;;
62338;SDS011;48368;53.406;6.214;2022-09-19T06:55:23;16.52;;;3.47;;
62338;SDS011;48368;53.406;6.214;2022-09-19T06:57:53;21.83;;;2.55;;
62338;SDS011;48368;53.406;6.214;2022-09-19T07:00:24;14.85;;;1.95;;
62338;SDS011;48368;53.406;6.214;2022-09-19T07:02:52;10.65;;;1.88;;
62338;SDS011;48368;53.406;6.214;2022-09-19T07:05:22;17.67;;;2.13;;
62338;SDS011;48368;53.406;6.214;2022-09-19T07:07:48;19.83;;;2.75;;
62338;SDS011;48368;53.406;6.214;2022-09-19T07:21:03;14.43;;;1.95;;
62338;SDS011;48368;53.406;6.214;2022-09-19T07:23:29;17.38;;;2.08;;
62338;SDS011;48368;53.406;6.214;2022-09-19T07:25:55;13.10;;;1.60;;
62338;SDS011;48368;53.406;6.214;2022-09-19T07:28:21;18.45;;;2.45;;
62338;SDS011;48368;53.406;6.214;2022-09-19T07:30:47;21.80;;;2.10;;
62338;SDS011;48368;53.406;6.214;2022-09-19T07:33:15;13.57;;;2.40;;
62338;SDS011;48368;53.406;6.214;2022-09-19T07:35:48;13.88;;;2.67;;
62338;SDS011;48368;53.406;6.214;2022-09-19T07:38:17;14.82;;;1.60;;
62338;SDS011;48368;53.406;6.214;2022-09-19T07:40:44;19.05;;;2.30;;
62338;SDS011;48368;53.406;6.214;2022-09-19T07:43:11;17.52;;;2.70;;
62338;SDS011;48368;53.406;6.214;2022-09-19T07:45:48;16.00;;;1.92;;
62338;SDS011;48368;53.406;6.214;2022-09-19T07:48:16;14.15;;;3.00;;
62338;SDS011;48368;53.406;6.214;2022-09-19T07:50:43;10.82;;;1.45;;
62338;SDS011;48368;53.406;6.214;2022-09-19T07:53:11;9.88;;;1.40;;
62338;SDS011;48368;53.406;6.214;2022-09-19T07:55:39;12.40;;;1.73;;
62338;SDS011;48368;53.406;6.214;2022-09-19T07:58:06;15.15;;;1.50;;
62338;SDS011;48368;53.406;6.214;2022-09-19T08:00:35;13.07;;;1.95;;
62338;SDS011;48368;53.406;6.214;2022-09-19T08:03:03;7.75;;;1.63;;
62338;SDS011;48368;53.406;6.214;2022-09-19T08:05:32;12.45;;;1.60;;
62338;SDS011;48368;53.406;6.214;2022-09-19T08:08:00;4.22;;;1.08;;
62338;SDS011;48368;53.406;6.214;2022-09-19T08:10:26;10.02;;;1.70;;
62338;SDS011;48368;53.406;6.214;2022-09-19T08:12:52;12.63;;;1.63;;
62338;SDS011;48368;53.406;6.214;2022-09-19T08:15:18;10.32;;;1.30;;
62338;SDS011;48368;53.406;6.214;2022-09-19T08:20:31;16.08;;;1.83;;
62338;SDS011;48368;53.406;6.214;2022-09-19T08:22:58;20.80;;;2.40;;
62338;SDS011;48368;53.406;6.214;2022-09-19T08:25:26;11.52;;;1.58;;
62338;SDS011;48368;53.406;6.214;2022-09-19T08:27:55;14.13;;;3.00;;
62338;SDS011;48368;53.406;6.214;2022-09-19T08:30:22;14.82;;;2.63;;
62338;SDS011;48368;53.406;6.214;2022-09-19T08:32:49;17.60;;;2.45;;
62338;SDS011;48368;53.406;6.214;2022-09-19T08:35:15;14.43;;;1.98;;
62338;SDS011;48368;53.406;6.214;2022-09-19T08:37:45;17.95;;;1.80;;
62338;SDS011;48368;53.406;6.214;2022-09-19T08:40:16;9.40;;;1.90;;
62338;SDS011;48368;53.406;6.214;2022-09-19T08:48:46;16.98;;;2.15;;
62338;SDS011;48368;53.406;6.214;2022-09-19T08:54:01;9.95;;;1.85;;
62338;SDS011;48368;53.406;6.214;2022-09-19T08:56:35;13.15;;;1.75;;
62338;SDS011;48368;53.406;6.214;2022-09-19T08:59:04;13.23;;;1.73;;
62338;SDS011;48368;53.406;6.214;2022-09-19T09:01:39;19.08;;;2.45;;
62338;SDS011;48368;53.406;6.214;2022-09-19T09:06:46;13.95;;;2.00;;
62338;SDS011;48368;53.406;6.214;2022-09-19T09:09:41;10.98;;;2.25;;
62338;SDS011;48368;53.406;6.214;2022-09-19T09:12:14;12.25;;;2.45;;
62338;SDS011;48368;53.406;6.214;2022-09-19T09:23:00;19.63;;;2.05;;
62338;SDS011;48368;53.406;6.214;2022-09-19T09:25:31;19.35;;;2.95;;
62338;SDS011;48368;53.406;6.214;2022-09-19T09:28:38;19.33;;;2.67;;
62338;SDS011;48368;53.406;6.214;2022-09-19T09:34:33;10.18;;;1.58;;
62338;SDS011;48368;53.406;6.214;2022-09-19T09:36:41;9.77;;;1.58;;
62338;SDS011;48368;53.406;6.214;2022-09-19T09:42:55;7.43;;;1.35;;
62338;SDS011;48368;53.406;6.214;2022-09-19T09:46:20;14.55;;;1.58;;
62338;SDS011;48368;53.406;6.214;2022-09-19T09:48:57;13.52;;;1.75;;
62338;SDS011;48368;53.406;6.214;2022-09-19T09:51:35;11.60;;;2.78;;
62338;SDS011;48368;53.406;6.214;2022-09-19T09:57:30;14.32;;;3.05;;
62338;SDS011;48368;53.406;6.214;2022-09-19T10:00:16;13.85;;;2.13;;
62338;SDS011;48368;53.406;6.214;2022-09-19T10:09:02;14.02;;;2.25;;
62338;SDS011;48368;53.406;6.214;2022-09-19T10:11:45;11.68;;;2.20;;
62338;SDS011;48368;53.406;6.214;2022-09-19T10:14:22;14.65;;;2.20;;
62338;SDS011;48368;53.406;6.214;2022-09-19T10:16:54;11.98;;;2.20;;
62338;SDS011;48368;53.406;6.214;2022-09-19T10:19:36;12.60;;;1.85;;
62338;SDS011;48368;53.406;6.214;2022-09-19T10:22:04;15.45;;;2.17;;
62338;SDS011;48368;53.406;6.214;2022-09-19T10:24:44;18.45;;;2.92;;
62338;SDS011;48368;53.406;6.214;2022-09-19T10:29:54;9.00;;;2.17;;
62338;SDS011;48368;53.406;6.214;2022-09-19T10:32:23;11.55;;;1.75;;
62338;SDS011;48368;53.406;6.214;2022-09-19T10:34:51;7.68;;;1.15;;
62338;SDS011;48368;53.406;6.214;2022-09-19T10:37:24;8.88;;;1.60;;
62338;SDS011;48368;53.406;6.214;2022-09-19T10:40:00;13.35;;;1.90;;
62338;SDS011;48368;53.406;6.214;2022-09-19T10:42:34;13.25;;;1.73;;
62338;SDS011;48368;53.406;6.214;2022-09-19T10:47:54;14.23;;;1.50;;
62338;SDS011;48368;53.406;6.214;2022-09-19T10:50:34;10.63;;;1.80;;
62338;SDS011;48368;53.406;6.214;2022-09-19T10:53:16;11.82;;;1.80;;
62338;SDS011;48368;53.406;6.214;2022-09-19T10:55:54;9.82;;;1.42;;
62338;SDS011;48368;53.406;6.214;2022-09-19T10:58:28;11.15;;;1.50;;
62338;SDS011;48368;53.406;6.214;2022-09-19T11:01:01;12.60;;;1.92;;
62338;SDS011;48368;53.406;6.214;2022-09-19T11:03:29;12.90;;;1.20;;
62338;SDS011;48368;53.406;6.214;2022-09-19T11:06:09;7.72;;;1.45;;
62338;SDS011;48368;53.406;6.214;2022-09-19T11:08:42;12.70;;;1.63;;
62338;SDS011;48368;53.406;6.214;2022-09-19T11:30:14;9.95;;;1.42;;
62338;SDS011;48368;53.406;6.214;2022-09-19T11:38:01;10.00;;;1.55;;
62338;SDS011;48368;53.406;6.214;2022-09-19T11:46:49;8.32;;;1.33;;
62338;SDS011;48368;53.406;6.214;2022-09-19T12:05:55;8.70;;;1.42;;
62338;SDS011;48368;53.406;6.214;2022-09-19T12:14:07;9.30;;;1.70;;
62338;SDS011;48368;53.406;6.214;2022-09-19T12:16:43;13.65;;;1.75;;
62338;SDS011;48368;53.406;6.214;2022-09-19T12:19:14;8.77;;;1.58;;
62338;SDS011;48368;53.406;6.214;2022-09-19T12:21:57;10.80;;;2.17;;
62338;SDS011;48368;53.406;6.214;2022-09-19T12:24:36;11.02;;;1.98;;
62338;SDS011;48368;53.406;6.214;2022-09-19T12:27:27;14.05;;;2.10;;
62338;SDS011;48368;53.406;6.214;2022-09-19T12:30:17;10.70;;;2.15;;
62338;SDS011;48368;53.406;6.214;2022-09-19T12:32:55;9.85;;;1.42;;
62338;SDS011;48368;53.406;6.214;2022-09-19T12:44:08;8.25;;;1.52;;
62338;SDS011;48368;53.406;6.214;2022-09-19T12:46:58;10.13;;;1.50;;
62338;SDS011;48368;53.406;6.214;2022-09-19T12:57:36;12.50;;;1.80;;
62338;SDS011;48368;53.406;6.214;2022-09-19T13:00:05;8.65;;;1.70;;
62338;SDS011;48368;53.406;6.214;2022-09-19T13:02:34;9.88;;;1.75;;
62338;SDS011;48368;53.406;6.214;2022-09-19T13:05:24;9.32;;;1.30;;
62338;SDS011;48368;53.406;6.214;2022-09-19T13:11:14;9.57;;;1.80;;
62338;SDS011;48368;53.406;6.214;2022-09-19T13:13:53;9.68;;;1.67;;
62338;SDS011;48368;53.406;6.214;2022-09-19T13:16:39;11.40;;;1.83;;
62338;SDS011;48368;53.406;6.214;2022-09-19T13:59:40;5.75;;;0.90;;
62338;SDS011;48368;53.406;6.214;2022-09-19T14:02:22;9.05;;;1.55;;
62338;SDS011;48368;53.406;6.214;2022-09-19T15:26:58;8.40;;;2.35;;
62338;SDS011;48368;53.406;6.214;2022-09-19T15:29:27;7.93;;;1.73;;
62338;SDS011;48368;53.406;6.214;2022-09-19T15:35:28;9.30;;;2.20;;
62338;SDS011;48368;53.406;6.214;2022-09-19T15:38:11;8.95;;;2.00;;
62338;SDS011;48368;53.406;6.214;2022-09-19T15:41:03;10.57;;;1.77;;
62338;SDS011;48368;53.406;6.214;2022-09-19T15:43:35;13.70;;;2.90;;
62338;SDS011;48368;53.406;6.214;2022-09-19T15:46:44;9.30;;;1.53;;
62338;SDS011;48368;53.406;6.214;2022-09-19T15:58:51;8.98;;;1.90;;
62338;SDS011;48368;53.406;6.214;2022-09-19T16:01:30;9.90;;;1.48;;
62338;SDS011;48368;53.406;6.214;2022-09-19T16:10:26;11.23;;;1.30;;
62338;SDS011;48368;53.406;6.214;2022-09-19T16:19:03;6.70;;;1.02;;
62338;SDS011;48368;53.406;6.214;2022-09-19T16:26:52;8.27;;;0.90;;
62338;SDS011;48368;53.406;6.214;2022-09-19T16:29:20;7.20;;;1.40;;
62338;SDS011;48368;53.406;6.214;2022-09-19T16:31:47;10.13;;;1.33;;
62338;SDS011;48368;53.406;6.214;2022-09-19T16:34:44;9.50;;;1.67;;
62338;SDS011;48368;53.406;6.214;2022-09-19T16:40:32;8.65;;;1.40;;
62338;SDS011;48368;53.406;6.214;2022-09-19T16:46:12;6.70;;;1.10;;
62338;SDS011;48368;53.406;6.214;2022-09-19T16:48:51;6.13;;;0.90;;
62338;SDS011;48368;53.406;6.214;2022-09-19T16:51:17;7.67;;;1.10;;
62338;SDS011;48368;53.406;6.214;2022-09-19T16:53:47;11.02;;;1.17;;
62338;SDS011;48368;53.406;6.214;2022-09-19T16:56:34;6.25;;;0.80;;
62338;SDS011;48368;53.406;6.214;2022-09-19T16:59:55;4.72;;;0.70;;
62338;SDS011;48368;53.406;6.214;2022-09-19T17:02:49;8.98;;;0.98;;
62338;SDS011;48368;53.406;6.214;2022-09-19T17:05:53;10.07;;;1.30;;
62338;SDS011;48368;53.406;6.214;2022-09-19T17:08:31;8.77;;;1.17;;
62338;SDS011;48368;53.406;6.214;2022-09-19T17:11:10;8.80;;;1.10;;
62338;SDS011;48368;53.406;6.214;2022-09-19T17:13:36;7.82;;;1.40;;
62338;SDS011;48368;53.406;6.214;2022-09-19T17:16:06;8.50;;;0.90;;
62338;SDS011;48368;53.406;6.214;2022-09-19T17:32:40;6.88;;;1.15;;
62338;SDS011;48368;53.406;6.214;2022-09-19T17:39:00;6.40;;;1.00;;
62338;SDS011;48368;53.406;6.214;2022-09-19T17:53:23;11.05;;;1.35;;
62338;SDS011;48368;53.406;6.214;2022-09-19T19:20:44;13.73;;;1.83;;
62338;SDS011;48368;53.406;6.214;2022-09-19T19:23:40;9.40;;;2.05;;
62338;SDS011;48368;53.406;6.214;2022-09-19T19:26:29;8.95;;;1.50;;
62338;SDS011;48368;53.406;6.214;2022-09-19T19:35:57;10.55;;;1.13;;
62338;SDS011;48368;53.406;6.214;2022-09-19T19:38:27;8.75;;;1.60;;
62338;SDS011;48368;53.406;6.214;2022-09-19T19:41:01;8.43;;;1.35;;
62338;SDS011;48368;53.406;6.214;2022-09-19T19:43:29;8.00;;;0.98;;
62338;SDS011;48368;53.406;6.214;2022-09-19T19:48:53;6.30;;;0.80;;
62338;SDS011;48368;53.406;6.214;2022-09-19T19:51:22;9.55;;;1.25;;
62338;SDS011;48368;53.406;6.214;2022-09-19T19:53:50;6.85;;;0.90;;
62338;SDS011;48368;53.406;6.214;2022-09-19T19:56:17;6.35;;;1.60;;
62338;SDS011;48368;53.406;6.214;2022-09-19T19:58:47;8.05;;;1.27;;
62338;SDS011;48368;53.406;6.214;2022-09-19T20:01:25;6.47;;;0.65;;
62338;SDS011;48368;53.406;6.214;2022-09-19T20:08:56;7.45;;;0.98;;
62338;SDS011;48368;53.406;6.214;2022-09-19T20:11:25;8.60;;;1.20;;
62338;SDS011;48368;53.406;6.214;2022-09-19T20:13:52;10.02;;;1.17;;
62338;SDS011;48368;53.406;6.214;2022-09-19T20:16:19;11.30;;;1.58;;
62338;SDS011;48368;53.406;6.214;2022-09-19T20:18:46;7.90;;;1.45;;
62338;SDS011;48368;53.406;6.214;2022-09-19T20:21:14;9.73;;;1.10;;
62338;SDS011;48368;53.406;6.214;2022-09-19T20:23:46;8.85;;;1.45;;
62338;SDS011;48368;53.406;6.214;2022-09-19T20:26:13;9.77;;;1.88;;
62338;SDS011;48368;53.406;6.214;2022-09-19T20:28:45;4.18;;;1.15;;
62338;SDS011;48368;53.406;6.214;2022-09-19T20:31:13;4.22;;;0.90;;
62338;SDS011;48368;53.406;6.214;2022-09-19T20:33:40;11.10;;;1.20;;
62338;SDS011;48368;53.406;6.214;2022-09-19T20:36:06;8.02;;;0.90;;
62338;SDS011;48368;53.406;6.214;2022-09-19T20:38:35;8.77;;;1.08;;
62338;SDS011;48368;53.406;6.214;2022-09-19T20:41:02;5.95;;;1.05;;
62338;SDS011;48368;53.406;6.214;2022-09-19T20:43:29;8.15;;;1.38;;
62338;SDS011;48368;53.406;6.214;2022-09-19T20:45:57;7.40;;;1.33;;
62338;SDS011;48368;53.406;6.214;2022-09-19T20:48:24;3.42;;;0.85;;
62338;SDS011;48368;53.406;6.214;2022-09-19T20:50:51;6.03;;;0.80;;
62338;SDS011;48368;53.406;6.214;2022-09-19T20:53:18;7.47;;;0.80;;
62338;SDS011;48368;53.406;6.214;2022-09-19T20:55:44;6.93;;;1.10;;
62338;SDS011;48368;53.406;6.214;2022-09-19T20:58:09;7.30;;;0.95;;
62338;SDS011;48368;53.406;6.214;2022-09-19T21:00:35;6.47;;;1.08;;
62338;SDS011;48368;53.406;6.214;2022-09-19T21:03:01;6.18;;;0.93;;
62338;SDS011;48368;53.406;6.214;2022-09-19T21:05:27;8.90;;;1.00;;
62338;SDS011;48368;53.406;6.214;2022-09-19T21:07:54;8.23;;;1.40;;
62338;SDS011;48368;53.406;6.214;2022-09-19T21:10:23;7.28;;;1.42;;
62338;SDS011;48368;53.406;6.214;2022-09-19T21:12:50;5.38;;;1.00;;
62338;SDS011;48368;53.406;6.214;2022-09-19T21:15:16;6.05;;;1.15;;
62338;SDS011;48368;53.406;6.214;2022-09-19T21:17:42;5.90;;;0.93;;
62338;SDS011;48368;53.406;6.214;2022-09-19T21:20:08;7.03;;;0.93;;
62338;SDS011;48368;53.406;6.214;2022-09-19T21:22:34;6.25;;;1.10;;
62338;SDS011;48368;53.406;6.214;2022-09-19T21:24:59;8.23;;;1.40;;
62338;SDS011;48368;53.406;6.214;2022-09-19T21:27:25;14.73;;;1.52;;
62338;SDS011;48368;53.406;6.214;2022-09-19T21:29:51;7.45;;;1.42;;
62338;SDS011;48368;53.406;6.214;2022-09-19T21:35:08;8.80;;;1.75;;
62338;SDS011;48368;53.406;6.214;2022-09-19T21:44:52;7.32;;;1.13;;
62338;SDS011;48368;53.406;6.214;2022-09-19T21:58:49;8.80;;;0.90;;
62338;SDS011;48368;53.406;6.214;2022-09-19T22:01:16;6.70;;;1.23;;
62338;SDS011;48368;53.406;6.214;2022-09-19T22:07:24;7.15;;;1.02;;
62338;SDS011;48368;53.406;6.214;2022-09-19T22:09:49;10.50;;;0.90;;
62338;SDS011;48368;53.406;6.214;2022-09-19T22:12:15;6.05;;;0.82;;
62338;SDS011;48368;53.406;6.214;2022-09-19T22:14:41;5.35;;;1.40;;
62338;SDS011;48368;53.406;6.214;2022-09-19T22:17:06;6.57;;;1.35;;
62338;SDS011;48368;53.406;6.214;2022-09-19T22:19:32;6.55;;;2.13;;
62338;SDS011;48368;53.406;6.214;2022-09-19T22:21:58;8.20;;;2.50;;
62338;SDS011;48368;53.406;6.214;2022-09-19T22:24:24;14.05;;;4.20;;
62338;SDS011;48368;53.406;6.214;2022-09-19T22:26:49;8.40;;;2.08;;
62338;SDS011;48368;53.406;6.214;2022-09-19T22:29:15;9.38;;;2.25;;
62338;SDS011;48368;53.406;6.214;2022-09-19T22:31:41;8.30;;;2.50;;
62338;SDS011;48368;53.406;6.214;2022-09-19T22:34:07;11.98;;;4.40;;
62338;SDS011;48368;53.406;6.214;2022-09-19T22:36:33;5.13;;;1.48;;
62338;SDS011;48368;53.406;6.214;2022-09-19T22:38:59;12.40;;;2.35;;
62338;SDS011;48368;53.406;6.214;2022-09-19T22:41:28;7.18;;;1.15;;
62338;SDS011;48368;53.406;6.214;2022-09-19T22:43:55;7.38;;;1.20;;
62338;SDS011;48368;53.406;6.214;2022-09-19T22:46:22;6.32;;;1.30;;
62338;SDS011;48368;53.406;6.214;2022-09-19T22:48:50;10.32;;;2.00;;
62338;SDS011;48368;53.406;6.214;2022-09-19T22:51:18;5.88;;;1.15;;